sensor_id;sensor_type;location;lat;lon;timestamp;temperature;humidity
37956;DHT22;23776;51.592;7.180;2023-08-06T00:00:07;15.80;53.90
37956;DHT22;23776;51.592;7.180;2023-08-06T00:02:34;15.80;54.60
37956;DHT22;23776;51.592;7.180;2023-08-06T00:05:00;15.80;53.90
37956;DHT22;23776;51.592;7.180;2023-08-06T00:07:25;15.80;55.30
37956;DHT22;23776;51.592;7.180;2023-08-06T00:09:51;15.80;52.80
37956;DHT22;23776;51.592;7.180;2023-08-06T00:12:16;15.80;54.10
37956;DHT22;23776;51.592;7.180;2023-08-06T00:14:42;15.80;53.80
37956;DHT22;23776;51.592;7.180;2023-08-06T00:17:08;15.80;53.30
37956;DHT22;23776;51.592;7.180;2023-08-06T00:19:34;15.80;53.20
37956;DHT22;23776;51.592;7.180;2023-08-06T00:21:59;15.80;54.70
37956;DHT22;23776;51.592;7.180;2023-08-06T00:24:25;15.80;55.50
37956;DHT22;23776;51.592;7.180;2023-08-06T00:26:50;15.80;56.30
37956;DHT22;23776;51.592;7.180;2023-08-06T00:29:16;15.80;56.10
37956;DHT22;23776;51.592;7.180;2023-08-06T00:31:41;15.80;56.70
37956;DHT22;23776;51.592;7.180;2023-08-06T00:34:07;15.90;56.80
37956;DHT22;23776;51.592;7.180;2023-08-06T00:36:33;15.90;57.20
37956;DHT22;23776;51.592;7.180;2023-08-06T00:38:58;15.80;54.70
37956;DHT22;23776;51.592;7.180;2023-08-06T00:41:24;15.80;55.20
37956;DHT22;23776;51.592;7.180;2023-08-06T00:43:49;15.80;56.00
37956;DHT22;23776;51.592;7.180;2023-08-06T00:46:15;15.80;56.00
37956;DHT22;23776;51.592;7.180;2023-08-06T00:48:41;15.50;52.70
37956;DHT22;23776;51.592;7.180;2023-08-06T00:51:09;15.80;54.30
37956;DHT22;23776;51.592;7.180;2023-08-06T00:53:37;15.90;52.80
37956;DHT22;23776;51.592;7.180;2023-08-06T00:56:03;15.80;51.00
37956;DHT22;23776;51.592;7.180;2023-08-06T00:58:28;15.80;51.90
37956;DHT22;23776;51.592;7.180;2023-08-06T01:00:54;15.80;52.40
37956;DHT22;23776;51.592;7.180;2023-08-06T01:03:20;15.70;53.20
37956;DHT22;23776;51.592;7.180;2023-08-06T01:05:46;15.70;52.80
37956;DHT22;23776;51.592;7.180;2023-08-06T01:08:28;15.70;53.50
37956;DHT22;23776;51.592;7.180;2023-08-06T01:11:08;15.60;54.00
37956;DHT22;23776;51.592;7.180;2023-08-06T01:13:46;15.70;54.60
37956;DHT22;23776;51.592;7.180;2023-08-06T01:16:17;15.70;55.00
37956;DHT22;23776;51.592;7.180;2023-08-06T01:18:43;15.70;54.00
37956;DHT22;23776;51.592;7.180;2023-08-06T01:21:13;15.70;54.10
37956;DHT22;23776;51.592;7.180;2023-08-06T01:23:39;15.70;55.30
37956;DHT22;23776;51.592;7.180;2023-08-06T01:26:17;15.70;55.70
37956;DHT22;23776;51.592;7.180;2023-08-06T01:28:49;15.70;54.40
37956;DHT22;23776;51.592;7.180;2023-08-06T01:31:21;15.70;55.00
37956;DHT22;23776;51.592;7.180;2023-08-06T01:33:49;15.80;55.00
37956;DHT22;23776;51.592;7.180;2023-08-06T01:36:17;15.70;54.00
37956;DHT22;23776;51.592;7.180;2023-08-06T01:38:43;15.70;53.70
37956;DHT22;23776;51.592;7.180;2023-08-06T01:41:09;15.60;54.50
37956;DHT22;23776;51.592;7.180;2023-08-06T01:43:35;15.60;54.60
37956;DHT22;23776;51.592;7.180;2023-08-06T01:46:00;15.60;55.40
37956;DHT22;23776;51.592;7.180;2023-08-06T01:48:26;15.70;55.20
37956;DHT22;23776;51.592;7.180;2023-08-06T01:50:52;15.70;55.60
37956;DHT22;23776;51.592;7.180;2023-08-06T01:53:17;15.80;57.00
37956;DHT22;23776;51.592;7.180;2023-08-06T01:55:48;15.70;56.30
37956;DHT22;23776;51.592;7.180;2023-08-06T01:58:13;15.70;56.10
37956;DHT22;23776;51.592;7.180;2023-08-06T02:00:40;15.70;56.20
37956;DHT22;23776;51.592;7.180;2023-08-06T02:03:05;15.70;55.80
37956;DHT22;23776;51.592;7.180;2023-08-06T02:05:31;15.80;56.90
37956;DHT22;23776;51.592;7.180;2023-08-06T02:07:57;15.70;56.30
37956;DHT22;23776;51.592;7.180;2023-08-06T02:10:22;15.80;56.40
37956;DHT22;23776;51.592;7.180;2023-08-06T02:12:48;15.80;56.30
37956;DHT22;23776;51.592;7.180;2023-08-06T02:15:14;15.80;56.10
37956;DHT22;23776;51.592;7.180;2023-08-06T02:17:39;15.80;56.30
37956;DHT22;23776;51.592;7.180;2023-08-06T02:20:05;15.80;55.40
37956;DHT22;23776;51.592;7.180;2023-08-06T02:22:31;15.80;55.40
37956;DHT22;23776;51.592;7.180;2023-08-06T02:24:57;15.80;54.70
37956;DHT22;23776;51.592;7.180;2023-08-06T02:27:22;15.80;55.20
37956;DHT22;23776;51.592;7.180;2023-08-06T02:29:48;15.80;54.40
37956;DHT22;23776;51.592;7.180;2023-08-06T02:32:13;15.70;54.20
37956;DHT22;23776;51.592;7.180;2023-08-06T02:34:39;15.70;54.30
37956;DHT22;23776;51.592;7.180;2023-08-06T02:37:05;15.70;54.50
37956;DHT22;23776;51.592;7.180;2023-08-06T02:39:30;13.60;53.10
37956;DHT22;23776;51.592;7.180;2023-08-06T02:41:56;15.70;53.70
37956;DHT22;23776;51.592;7.180;2023-08-06T02:44:21;15.70;54.70
37956;DHT22;23776;51.592;7.180;2023-08-06T02:46:47;15.70;55.00
37956;DHT22;23776;51.592;7.180;2023-08-06T02:49:12;15.60;54.70
37956;DHT22;23776;51.592;7.180;2023-08-06T02:51:38;15.60;55.20
37956;DHT22;23776;51.592;7.180;2023-08-06T02:54:03;15.60;55.90
37956;DHT22;23776;51.592;7.180;2023-08-06T02:56:29;15.60;55.00
37956;DHT22;23776;51.592;7.180;2023-08-06T02:58:55;15.50;55.60
37956;DHT22;23776;51.592;7.180;2023-08-06T03:01:20;15.50;56.30
37956;DHT22;23776;51.592;7.180;2023-08-06T03:03:46;15.50;56.70
37956;DHT22;23776;51.592;7.180;2023-08-06T03:06:11;15.50;57.80
37956;DHT22;23776;51.592;7.180;2023-08-06T03:08:37;15.50;56.00
37956;DHT22;23776;51.592;7.180;2023-08-06T03:11:03;15.50;56.20
37956;DHT22;23776;51.592;7.180;2023-08-06T03:13:28;15.40;57.40
37956;DHT22;23776;51.592;7.180;2023-08-06T03:15:55;15.50;57.10
37956;DHT22;23776;51.592;7.180;2023-08-06T03:18:22;15.40;57.50
37956;DHT22;23776;51.592;7.180;2023-08-06T03:20:48;15.40;57.80
37956;DHT22;23776;51.592;7.180;2023-08-06T03:23:13;15.30;58.00
37956;DHT22;23776;51.592;7.180;2023-08-06T03:25:39;15.20;58.00
37956;DHT22;23776;51.592;7.180;2023-08-06T03:28:05;15.20;57.60
37956;DHT22;23776;51.592;7.180;2023-08-06T03:30:30;15.10;57.90
37956;DHT22;23776;51.592;7.180;2023-08-06T03:32:56;15.00;58.50
37956;DHT22;23776;51.592;7.180;2023-08-06T03:35:21;15.00;60.70
37956;DHT22;23776;51.592;7.180;2023-08-06T03:37:47;14.90;60.90
37956;DHT22;23776;51.592;7.180;2023-08-06T03:40:13;14.90;60.60
37956;DHT22;23776;51.592;7.180;2023-08-06T03:42:39;14.90;61.10
37956;DHT22;23776;51.592;7.180;2023-08-06T03:45:05;14.80;60.10
37956;DHT22;23776;51.592;7.180;2023-08-06T03:47:31;14.80;62.30
37956;DHT22;23776;51.592;7.180;2023-08-06T03:49:56;14.80;62.00
37956;DHT22;23776;51.592;7.180;2023-08-06T03:52:22;14.70;61.20
37956;DHT22;23776;51.592;7.180;2023-08-06T03:54:47;14.70;61.40
37956;DHT22;23776;51.592;7.180;2023-08-06T03:57:13;14.60;61.50
37956;DHT22;23776;51.592;7.180;2023-08-06T03:59:38;14.60;61.60
37956;DHT22;23776;51.592;7.180;2023-08-06T04:02:04;14.60;62.20
37956;DHT22;23776;51.592;7.180;2023-08-06T04:04:30;14.60;62.20
37956;DHT22;23776;51.592;7.180;2023-08-06T04:06:55;14.60;62.40
37956;DHT22;23776;51.592;7.180;2023-08-06T04:09:21;14.60;61.20
37956;DHT22;23776;51.592;7.180;2023-08-06T04:11:46;14.60;60.50
37956;DHT22;23776;51.592;7.180;2023-08-06T04:14:12;14.50;61.20
37956;DHT22;23776;51.592;7.180;2023-08-06T04:16:38;14.50;61.20
37956;DHT22;23776;51.592;7.180;2023-08-06T04:19:03;14.40;61.80
37956;DHT22;23776;51.592;7.180;2023-08-06T04:21:29;14.40;62.50
37956;DHT22;23776;51.592;7.180;2023-08-06T04:23:56;14.40;63.20
37956;DHT22;23776;51.592;7.180;2023-08-06T04:26:21;15.60;63.60
37956;DHT22;23776;51.592;7.180;2023-08-06T04:28:47;14.50;63.40
37956;DHT22;23776;51.592;7.180;2023-08-06T04:31:13;14.40;63.60
37956;DHT22;23776;51.592;7.180;2023-08-06T04:33:38;14.50;63.00
37956;DHT22;23776;51.592;7.180;2023-08-06T04:36:04;14.50;63.00
37956;DHT22;23776;51.592;7.180;2023-08-06T04:38:30;14.50;62.40
37956;DHT22;23776;51.592;7.180;2023-08-06T04:40:55;14.50;63.10
37956;DHT22;23776;51.592;7.180;2023-08-06T04:43:21;14.50;62.40
37956;DHT22;23776;51.592;7.180;2023-08-06T04:45:50;14.50;62.40
37956;DHT22;23776;51.592;7.180;2023-08-06T04:48:16;14.60;62.90
37956;DHT22;23776;51.592;7.180;2023-08-06T04:50:46;14.50;61.50
37956;DHT22;23776;51.592;7.180;2023-08-06T04:53:12;14.50;62.70
37956;DHT22;23776;51.592;7.180;2023-08-06T04:55:38;14.50;63.60
37956;DHT22;23776;51.592;7.180;2023-08-06T04:58:03;14.40;64.20
37956;DHT22;23776;51.592;7.180;2023-08-06T05:00:29;14.50;63.60
37956;DHT22;23776;51.592;7.180;2023-08-06T05:02:55;14.60;64.40
37956;DHT22;23776;51.592;7.180;2023-08-06T05:05:21;14.60;64.40
37956;DHT22;23776;51.592;7.180;2023-08-06T05:07:49;14.60;64.80
37956;DHT22;23776;51.592;7.180;2023-08-06T05:10:15;14.60;66.20
37956;DHT22;23776;51.592;7.180;2023-08-06T05:12:41;14.80;67.50
37956;DHT22;23776;51.592;7.180;2023-08-06T05:15:07;14.80;66.90
37956;DHT22;23776;51.592;7.180;2023-08-06T05:17:33;14.80;66.10
37956;DHT22;23776;51.592;7.180;2023-08-06T05:19:59;15.00;66.30
37956;DHT22;23776;51.592;7.180;2023-08-06T05:22:25;15.00;66.90
37956;DHT22;23776;51.592;7.180;2023-08-06T05:24:51;15.10;67.20
37956;DHT22;23776;51.592;7.180;2023-08-06T05:27:16;15.20;67.00
37956;DHT22;23776;51.592;7.180;2023-08-06T05:29:44;15.40;66.20
37956;DHT22;23776;51.592;7.180;2023-08-06T05:32:10;15.40;66.70
37956;DHT22;23776;51.592;7.180;2023-08-06T05:34:35;15.50;65.90
37956;DHT22;23776;51.592;7.180;2023-08-06T05:37:01;15.50;64.50
37956;DHT22;23776;51.592;7.180;2023-08-06T05:39:27;15.60;64.00
37956;DHT22;23776;51.592;7.180;2023-08-06T05:41:52;15.70;64.20
37956;DHT22;23776;51.592;7.180;2023-08-06T05:44:18;15.80;63.70
37956;DHT22;23776;51.592;7.180;2023-08-06T05:46:43;15.80;64.10
37956;DHT22;23776;51.592;7.180;2023-08-06T05:49:09;15.80;63.40
37956;DHT22;23776;51.592;7.180;2023-08-06T05:51:35;15.80;63.70
37956;DHT22;23776;51.592;7.180;2023-08-06T05:54:00;15.90;63.70
37956;DHT22;23776;51.592;7.180;2023-08-06T05:56:26;16.00;63.00
37956;DHT22;23776;51.592;7.180;2023-08-06T05:58:52;16.20;60.10
37956;DHT22;23776;51.592;7.180;2023-08-06T06:01:18;16.10;60.70
37956;DHT22;23776;51.592;7.180;2023-08-06T06:03:44;16.30;59.80
37956;DHT22;23776;51.592;7.180;2023-08-06T06:06:10;16.40;57.60
37956;DHT22;23776;51.592;7.180;2023-08-06T06:08:35;18.10;57.50
37956;DHT22;23776;51.592;7.180;2023-08-06T06:11:01;16.50;56.60
37956;DHT22;23776;51.592;7.180;2023-08-06T06:13:26;16.50;53.70
37956;DHT22;23776;51.592;7.180;2023-08-06T06:15:54;16.60;48.40
37956;DHT22;23776;51.592;7.180;2023-08-06T06:18:21;16.80;48.20
37956;DHT22;23776;51.592;7.180;2023-08-06T06:20:47;16.80;48.40
37956;DHT22;23776;51.592;7.180;2023-08-06T06:23:12;16.90;46.50
37956;DHT22;23776;51.592;7.180;2023-08-06T06:25:42;17.00;43.80
37956;DHT22;23776;51.592;7.180;2023-08-06T06:28:09;17.10;43.60
37956;DHT22;23776;51.592;7.180;2023-08-06T06:30:34;17.10;39.80
37956;DHT22;23776;51.592;7.180;2023-08-06T06:33:00;17.30;32.10
37956;DHT22;23776;51.592;7.180;2023-08-06T06:35:26;17.30;30.40
37956;DHT22;23776;51.592;7.180;2023-08-06T06:37:51;17.40;23.40
37956;DHT22;23776;51.592;7.180;2023-08-06T06:40:17;17.50;14.50
37956;DHT22;23776;51.592;7.180;2023-08-06T06:42:42;17.60;10.70
37956;DHT22;23776;51.592;7.180;2023-08-06T06:45:09;17.70;6.90
37956;DHT22;23776;51.592;7.180;2023-08-06T06:47:34;17.70;1.00
37956;DHT22;23776;51.592;7.180;2023-08-06T06:50:00;17.70;1.00
37956;DHT22;23776;51.592;7.180;2023-08-06T06:52:26;17.80;1.00
37956;DHT22;23776;51.592;7.180;2023-08-06T06:54:51;17.90;4.40
37956;DHT22;23776;51.592;7.180;2023-08-06T06:57:17;18.00;4.80
37956;DHT22;23776;51.592;7.180;2023-08-06T06:59:42;18.10;1.00
37956;DHT22;23776;51.592;7.180;2023-08-06T07:02:08;18.20;1.00
37956;DHT22;23776;51.592;7.180;2023-08-06T07:04:33;18.20;1.00
37956;DHT22;23776;51.592;7.180;2023-08-06T07:06:59;18.20;1.00
37956;DHT22;23776;51.592;7.180;2023-08-06T07:09:25;18.30;1.00
37956;DHT22;23776;51.592;7.180;2023-08-06T07:11:50;18.20;1.00
37956;DHT22;23776;51.592;7.180;2023-08-06T07:14:17;18.20;1.00
37956;DHT22;23776;51.592;7.180;2023-08-06T07:16:43;18.30;1.00
37956;DHT22;23776;51.592;7.180;2023-08-06T07:19:08;18.40;1.00
37956;DHT22;23776;51.592;7.180;2023-08-06T07:21:34;18.50;1.00
37956;DHT22;23776;51.592;7.180;2023-08-06T07:24:00;18.60;1.00
37956;DHT22;23776;51.592;7.180;2023-08-06T07:26:25;18.80;1.00
37956;DHT22;23776;51.592;7.180;2023-08-06T07:28:51;18.70;99.90
37956;DHT22;23776;51.592;7.180;2023-08-06T07:31:17;18.80;99.90
37956;DHT22;23776;51.592;7.180;2023-08-06T07:33:42;18.90;99.90
37956;DHT22;23776;51.592;7.180;2023-08-06T07:36:11;18.90;99.90
37956;DHT22;23776;51.592;7.180;2023-08-06T07:38:37;18.80;99.90
37956;DHT22;23776;51.592;7.180;2023-08-06T07:41:03;18.80;99.90
37956;DHT22;23776;51.592;7.180;2023-08-06T07:43:29;18.60;99.90
37956;DHT22;23776;51.592;7.180;2023-08-06T07:45:58;18.40;99.90
37956;DHT22;23776;51.592;7.180;2023-08-06T07:48:25;18.20;99.90
37956;DHT22;23776;51.592;7.180;2023-08-06T07:50:54;18.10;99.90
37956;DHT22;23776;51.592;7.180;2023-08-06T07:53:21;18.00;99.90
37956;DHT22;23776;51.592;7.180;2023-08-06T07:55:52;18.10;99.90
37956;DHT22;23776;51.592;7.180;2023-08-06T07:58:18;18.20;99.90
37956;DHT22;23776;51.592;7.180;2023-08-06T08:00:44;18.20;99.90
37956;DHT22;23776;51.592;7.180;2023-08-06T08:03:12;18.20;99.90
37956;DHT22;23776;51.592;7.180;2023-08-06T08:05:39;18.30;99.90
37956;DHT22;23776;51.592;7.180;2023-08-06T08:08:04;18.40;99.90
37956;DHT22;23776;51.592;7.180;2023-08-06T08:10:31;18.10;99.90
37956;DHT22;23776;51.592;7.180;2023-08-06T08:12:57;18.30;99.90
37956;DHT22;23776;51.592;7.180;2023-08-06T08:15:24;18.30;99.90
37956;DHT22;23776;51.592;7.180;2023-08-06T08:17:51;18.30;99.90
37956;DHT22;23776;51.592;7.180;2023-08-06T08:20:17;18.30;99.90
37956;DHT22;23776;51.592;7.180;2023-08-06T08:22:43;18.40;99.90
37956;DHT22;23776;51.592;7.180;2023-08-06T08:25:09;18.30;99.90
37956;DHT22;23776;51.592;7.180;2023-08-06T08:27:34;18.10;99.90
37956;DHT22;23776;51.592;7.180;2023-08-06T08:30:00;17.90;99.90
37956;DHT22;23776;51.592;7.180;2023-08-06T08:32:25;17.90;99.90
37956;DHT22;23776;51.592;7.180;2023-08-06T08:34:51;17.90;1.00
37956;DHT22;23776;51.592;7.180;2023-08-06T08:37:16;17.80;1.00
37956;DHT22;23776;51.592;7.180;2023-08-06T08:39:42;17.90;1.00
37956;DHT22;23776;51.592;7.180;2023-08-06T08:42:10;17.90;1.00
37956;DHT22;23776;51.592;7.180;2023-08-06T08:44:36;17.90;1.00
37956;DHT22;23776;51.592;7.180;2023-08-06T08:47:06;17.90;1.00
37956;DHT22;23776;51.592;7.180;2023-08-06T08:49:32;17.90;1.00
37956;DHT22;23776;51.592;7.180;2023-08-06T08:51:59;18.00;1.00
37956;DHT22;23776;51.592;7.180;2023-08-06T08:54:25;17.90;1.00
37956;DHT22;23776;51.592;7.180;2023-08-06T08:56:51;17.90;1.00
37956;DHT22;23776;51.592;7.180;2023-08-06T08:59:17;17.70;1.00
37956;DHT22;23776;51.592;7.180;2023-08-06T09:01:46;17.80;1.00
37956;DHT22;23776;51.592;7.180;2023-08-06T09:04:16;17.80;1.00
37956;DHT22;23776;51.592;7.180;2023-08-06T09:06:43;17.90;1.00
37956;DHT22;23776;51.592;7.180;2023-08-06T09:09:26;18.10;1.00
37956;DHT22;23776;51.592;7.180;2023-08-06T09:11:52;18.20;1.00
37956;DHT22;23776;51.592;7.180;2023-08-06T09:14:19;18.30;1.00
37956;DHT22;23776;51.592;7.180;2023-08-06T09:16:46;18.40;1.00
37956;DHT22;23776;51.592;7.180;2023-08-06T09:19:13;18.50;1.00
37956;DHT22;23776;51.592;7.180;2023-08-06T09:21:41;18.50;1.00
37956;DHT22;23776;51.592;7.180;2023-08-06T09:24:11;18.60;1.00
37956;DHT22;23776;51.592;7.180;2023-08-06T09:26:39;18.70;1.00
37956;DHT22;23776;51.592;7.180;2023-08-06T09:29:09;18.70;1.00
37956;DHT22;23776;51.592;7.180;2023-08-06T09:31:43;18.70;1.00
37956;DHT22;23776;51.592;7.180;2023-08-06T09:34:16;18.80;1.00
37956;DHT22;23776;51.592;7.180;2023-08-06T09:36:43;18.90;1.00
37956;DHT22;23776;51.592;7.180;2023-08-06T09:39:18;19.10;1.00
37956;DHT22;23776;51.592;7.180;2023-08-06T09:41:45;19.10;1.00
37956;DHT22;23776;51.592;7.180;2023-08-06T09:44:20;19.20;1.00
37956;DHT22;23776;51.592;7.180;2023-08-06T09:46:57;19.20;1.00
37956;DHT22;23776;51.592;7.180;2023-08-06T09:49:27;19.40;1.00
37956;DHT22;23776;51.592;7.180;2023-08-06T09:51:53;19.40;1.00
37956;DHT22;23776;51.592;7.180;2023-08-06T09:54:23;19.50;1.00
37956;DHT22;23776;51.592;7.180;2023-08-06T09:56:49;19.60;1.00
37956;DHT22;23776;51.592;7.180;2023-08-06T09:59:15;19.80;1.00
37956;DHT22;23776;51.592;7.180;2023-08-06T10:01:45;19.90;99.90
37956;DHT22;23776;51.592;7.180;2023-08-06T10:04:13;19.90;99.90
37956;DHT22;23776;51.592;7.180;2023-08-06T10:06:42;19.90;39.30
37956;DHT22;23776;51.592;7.180;2023-08-06T10:09:08;19.90;1.00
37956;DHT22;23776;51.592;7.180;2023-08-06T10:11:36;19.90;1.00
37956;DHT22;23776;51.592;7.180;2023-08-06T10:14:32;20.00;1.00
37956;DHT22;23776;51.592;7.180;2023-08-06T10:16:59;20.10;99.90
37956;DHT22;23776;51.592;7.180;2023-08-06T10:19:26;20.30;99.90
37956;DHT22;23776;51.592;7.180;2023-08-06T10:22:17;20.30;99.90
37956;DHT22;23776;51.592;7.180;2023-08-06T10:27:41;20.60;1.00
37956;DHT22;23776;51.592;7.180;2023-08-06T10:30:30;20.80;1.00
37956;DHT22;23776;51.592;7.180;2023-08-06T10:32:57;21.00;1.00
37956;DHT22;23776;51.592;7.180;2023-08-06T10:38:17;21.30;18.60
37956;DHT22;23776;51.592;7.180;2023-08-06T10:43:48;21.60;99.90
37956;DHT22;23776;51.592;7.180;2023-08-06T10:46:27;21.40;99.90
37956;DHT22;23776;51.592;7.180;2023-08-06T10:48:52;21.50;99.90
37956;DHT22;23776;51.592;7.180;2023-08-06T10:51:18;21.50;99.90
37956;DHT22;23776;51.592;7.180;2023-08-06T10:53:46;21.70;1.00
37956;DHT22;23776;51.592;7.180;2023-08-06T10:56:16;21.90;99.90
37956;DHT22;23776;51.592;7.180;2023-08-06T10:58:45;21.80;99.90
37956;DHT22;23776;51.592;7.180;2023-08-06T11:01:12;21.70;99.90
37956;DHT22;23776;51.592;7.180;2023-08-06T11:03:38;21.70;1.00
37956;DHT22;23776;51.592;7.180;2023-08-06T11:06:06;21.70;1.00
37956;DHT22;23776;51.592;7.180;2023-08-06T11:08:40;22.10;1.00
37956;DHT22;23776;51.592;7.180;2023-08-06T11:11:16;22.00;1.00
37956;DHT22;23776;51.592;7.180;2023-08-06T11:13:44;22.20;99.90
37956;DHT22;23776;51.592;7.180;2023-08-06T11:16:13;22.40;99.90
37956;DHT22;23776;51.592;7.180;2023-08-06T11:18:40;22.50;99.90
37956;DHT22;23776;51.592;7.180;2023-08-06T11:21:07;22.50;99.90
37956;DHT22;23776;51.592;7.180;2023-08-06T11:23:34;22.80;99.90
37956;DHT22;23776;51.592;7.180;2023-08-06T11:26:00;23.10;99.90
37956;DHT22;23776;51.592;7.180;2023-08-06T11:28:26;23.10;99.90
37956;DHT22;23776;51.592;7.180;2023-08-06T11:30:52;23.00;99.90
37956;DHT22;23776;51.592;7.180;2023-08-06T11:33:22;22.40;55.70
37956;DHT22;23776;51.592;7.180;2023-08-06T11:35:49;21.40;14.70
37956;DHT22;23776;51.592;7.180;2023-08-06T11:38:15;20.20;99.90
37956;DHT22;23776;51.592;7.180;2023-08-06T11:40:46;19.40;99.90
37956;DHT22;23776;51.592;7.180;2023-08-06T11:43:12;18.90;99.90
37956;DHT22;23776;51.592;7.180;2023-08-06T11:45:38;18.60;1.00
37956;DHT22;23776;51.592;7.180;2023-08-06T11:48:05;18.20;1.00
37956;DHT22;23776;51.592;7.180;2023-08-06T11:50:30;17.90;1.00
37956;DHT22;23776;51.592;7.180;2023-08-06T11:52:57;17.80;1.00
37956;DHT22;23776;51.592;7.180;2023-08-06T11:55:24;17.70;1.00
37956;DHT22;23776;51.592;7.180;2023-08-06T11:57:50;17.60;1.00
37956;DHT22;23776;51.592;7.180;2023-08-06T12:00:16;17.30;1.00
37956;DHT22;23776;51.592;7.180;2023-08-06T12:02:45;17.30;1.00
37956;DHT22;23776;51.592;7.180;2023-08-06T12:05:15;17.20;1.00
37956;DHT22;23776;51.592;7.180;2023-08-06T12:07:43;16.80;9.00
37956;DHT22;23776;51.592;7.180;2023-08-06T12:10:10;16.70;15.40
37956;DHT22;23776;51.592;7.180;2023-08-06T12:12:36;16.70;25.60
37956;DHT22;23776;51.592;7.180;2023-08-06T12:15:03;16.70;19.10
37956;DHT22;23776;51.592;7.180;2023-08-06T12:17:29;16.60;32.00
37956;DHT22;23776;51.592;7.180;2023-08-06T12:19:55;16.50;38.80
37956;DHT22;23776;51.592;7.180;2023-08-06T12:22:21;16.40;37.70
37956;DHT22;23776;51.592;7.180;2023-08-06T12:24:47;16.30;47.00
37956;DHT22;23776;51.592;7.180;2023-08-06T12:27:14;16.30;49.00
37956;DHT22;23776;51.592;7.180;2023-08-06T12:29:42;16.20;49.10
37956;DHT22;23776;51.592;7.180;2023-08-06T12:32:09;16.20;47.70
37956;DHT22;23776;51.592;7.180;2023-08-06T12:34:35;16.00;54.90
37956;DHT22;23776;51.592;7.180;2023-08-06T12:37:02;15.90;58.30
37956;DHT22;23776;51.592;7.180;2023-08-06T12:39:27;15.60;58.00
37956;DHT22;23776;51.592;7.180;2023-08-06T12:41:55;15.60;60.20
37956;DHT22;23776;51.592;7.180;2023-08-06T12:44:20;15.50;65.00
37956;DHT22;23776;51.592;7.180;2023-08-06T12:50:09;15.30;62.90
37956;DHT22;23776;51.592;7.180;2023-08-06T12:52:34;15.30;63.10
37956;DHT22;23776;51.592;7.180;2023-08-06T12:55:00;15.10;60.20
37956;DHT22;23776;51.592;7.180;2023-08-06T12:57:25;14.90;61.80
37956;DHT22;23776;51.592;7.180;2023-08-06T12:59:52;14.80;60.50
37956;DHT22;23776;51.592;7.180;2023-08-06T13:02:18;14.70;59.80
37956;DHT22;23776;51.592;7.180;2023-08-06T13:04:45;14.60;62.20
37956;DHT22;23776;51.592;7.180;2023-08-06T13:07:11;14.50;63.40
37956;DHT22;23776;51.592;7.180;2023-08-06T13:09:37;14.50;63.90
37956;DHT22;23776;51.592;7.180;2023-08-06T13:12:02;14.40;65.60
37956;DHT22;23776;51.592;7.180;2023-08-06T13:14:31;14.40;67.00
37956;DHT22;23776;51.592;7.180;2023-08-06T13:16:57;14.40;67.70
37956;DHT22;23776;51.592;7.180;2023-08-06T13:19:22;14.40;67.50
37956;DHT22;23776;51.592;7.180;2023-08-06T13:24:15;14.40;68.50
37956;DHT22;23776;51.592;7.180;2023-08-06T13:26:41;14.40;68.80
37956;DHT22;23776;51.592;7.180;2023-08-06T13:29:07;14.30;69.50
37956;DHT22;23776;51.592;7.180;2023-08-06T13:31:32;14.40;69.80
37956;DHT22;23776;51.592;7.180;2023-08-06T13:33:58;14.30;69.60
37956;DHT22;23776;51.592;7.180;2023-08-06T13:36:27;14.30;69.50
37956;DHT22;23776;51.592;7.180;2023-08-06T13:38:53;14.30;70.80
37956;DHT22;23776;51.592;7.180;2023-08-06T13:41:19;14.30;71.50
37956;DHT22;23776;51.592;7.180;2023-08-06T13:43:44;14.40;72.70
37956;DHT22;23776;51.592;7.180;2023-08-06T13:46:11;14.40;73.60
37956;DHT22;23776;51.592;7.180;2023-08-06T13:48:44;14.50;74.20
37956;DHT22;23776;51.592;7.180;2023-08-06T13:51:11;14.30;74.80
37956;DHT22;23776;51.592;7.180;2023-08-06T13:53:40;14.60;75.80
37956;DHT22;23776;51.592;7.180;2023-08-06T13:56:07;14.60;74.70
37956;DHT22;23776;51.592;7.180;2023-08-06T13:58:33;14.60;74.70
37956;DHT22;23776;51.592;7.180;2023-08-06T14:00:59;14.60;75.10
37956;DHT22;23776;51.592;7.180;2023-08-06T14:03:25;14.70;75.30
37956;DHT22;23776;51.592;7.180;2023-08-06T14:05:50;14.60;72.90
37956;DHT22;23776;51.592;7.180;2023-08-06T14:08:16;14.60;73.40
37956;DHT22;23776;51.592;7.180;2023-08-06T14:10:45;14.60;73.40
37956;DHT22;23776;51.592;7.180;2023-08-06T14:13:11;14.50;73.40
37956;DHT22;23776;51.592;7.180;2023-08-06T14:15:37;14.60;70.80
37956;DHT22;23776;51.592;7.180;2023-08-06T14:18:06;14.50;72.50
37956;DHT22;23776;51.592;7.180;2023-08-06T14:20:33;14.50;72.00
37956;DHT22;23776;51.592;7.180;2023-08-06T14:22:59;14.50;70.90
37956;DHT22;23776;51.592;7.180;2023-08-06T14:25:25;14.50;72.90
37956;DHT22;23776;51.592;7.180;2023-08-06T14:27:50;14.40;74.30
37956;DHT22;23776;51.592;7.180;2023-08-06T14:30:16;14.40;70.60
37956;DHT22;23776;51.592;7.180;2023-08-06T14:32:42;14.50;73.10
37956;DHT22;23776;51.592;7.180;2023-08-06T14:35:08;14.40;73.50
37956;DHT22;23776;51.592;7.180;2023-08-06T14:37:33;14.50;75.30
37956;DHT22;23776;51.592;7.180;2023-08-06T14:39:59;14.50;73.80
37956;DHT22;23776;51.592;7.180;2023-08-06T14:42:24;14.50;73.30
37956;DHT22;23776;51.592;7.180;2023-08-06T14:44:50;14.50;72.70
37956;DHT22;23776;51.592;7.180;2023-08-06T14:47:19;14.70;72.10
37956;DHT22;23776;51.592;7.180;2023-08-06T14:49:44;14.70;70.80
37956;DHT22;23776;51.592;7.180;2023-08-06T14:52:10;14.70;71.60
37956;DHT22;23776;51.592;7.180;2023-08-06T14:54:36;14.70;72.10
37956;DHT22;23776;51.592;7.180;2023-08-06T14:57:01;14.70;72.00
37956;DHT22;23776;51.592;7.180;2023-08-06T14:59:27;14.70;72.50
37956;DHT22;23776;51.592;7.180;2023-08-06T15:01:53;14.80;72.80
37956;DHT22;23776;51.592;7.180;2023-08-06T15:04:19;14.80;73.70
37956;DHT22;23776;51.592;7.180;2023-08-06T15:06:44;14.90;73.00
37956;DHT22;23776;51.592;7.180;2023-08-06T15:09:11;14.90;69.70
37956;DHT22;23776;51.592;7.180;2023-08-06T15:11:37;14.90;69.60
37956;DHT22;23776;51.592;7.180;2023-08-06T15:14:02;15.00;63.60
37956;DHT22;23776;51.592;7.180;2023-08-06T15:16:30;15.00;65.20
37956;DHT22;23776;51.592;7.180;2023-08-06T15:18:56;15.20;59.70
37956;DHT22;23776;51.592;7.180;2023-08-06T15:21:21;15.10;60.70
37956;DHT22;23776;51.592;7.180;2023-08-06T15:23:47;15.30;63.70
37956;DHT22;23776;51.592;7.180;2023-08-06T15:26:12;15.50;48.40
37956;DHT22;23776;51.592;7.180;2023-08-06T15:28:38;15.90;18.20
37956;DHT22;23776;51.592;7.180;2023-08-06T15:31:03;15.90;16.00
37956;DHT22;23776;51.592;7.180;2023-08-06T15:33:31;15.90;1.00
37956;DHT22;23776;51.592;7.180;2023-08-06T15:35:56;15.80;9.40
37956;DHT22;23776;51.592;7.180;2023-08-06T15:38:23;15.70;7.40
37956;DHT22;23776;51.592;7.180;2023-08-06T15:40:48;15.70;14.80
37956;DHT22;23776;51.592;7.180;2023-08-06T15:43:14;15.70;8.40
37956;DHT22;23776;51.592;7.180;2023-08-06T15:45:40;17.50;8.20